sensor_id;sensor_type;location;lat;lon;timestamp;P1;durP1;ratioP1;P2;durP2;ratioP2
45114;SDS011;30877;43.706;10.780;2023-03-08T00:01:00;4.72;;;2.90;;
45114;SDS011;30877;43.706;10.780;2023-03-08T00:03:29;5.00;;;2.88;;
45114;SDS011;30877;43.706;10.780;2023-03-08T00:05:58;3.72;;;2.70;;
45114;SDS011;30877;43.706;10.780;2023-03-08T00:08:30;5.15;;;2.78;;
45114;SDS011;30877;43.706;10.780;2023-03-08T00:10:58;6.03;;;3.65;;
45114;SDS011;30877;43.706;10.780;2023-03-08T00:13:26;3.95;;;2.65;;
45114;SDS011;30877;43.706;10.780;2023-03-08T00:15:57;4.85;;;3.30;;
45114;SDS011;30877;43.706;10.780;2023-03-08T00:18:26;3.97;;;2.88;;
45114;SDS011;30877;43.706;10.780;2023-03-08T00:21:00;7.57;;;3.03;;
45114;SDS011;30877;43.706;10.780;2023-03-08T00:23:28;6.20;;;3.15;;
45114;SDS011;30877;43.706;10.780;2023-03-08T00:25:56;4.32;;;3.28;;
45114;SDS011;30877;43.706;10.780;2023-03-08T00:28:25;4.20;;;2.85;;
45114;SDS011;30877;43.706;10.780;2023-03-08T00:30:56;6.40;;;3.40;;
45114;SDS011;30877;43.706;10.780;2023-03-08T00:33:26;5.68;;;3.05;;
45114;SDS011;30877;43.706;10.780;2023-03-08T00:35:56;6.05;;;3.00;;
45114;SDS011;30877;43.706;10.780;2023-03-08T00:38:26;4.68;;;3.00;;
45114;SDS011;30877;43.706;10.780;2023-03-08T00:40:55;6.18;;;3.35;;
45114;SDS011;30877;43.706;10.780;2023-03-08T00:43:23;6.03;;;3.40;;
45114;SDS011;30877;43.706;10.780;2023-03-08T00:45:51;4.18;;;3.17;;
45114;SDS011;30877;43.706;10.780;2023-03-08T00:48:21;6.63;;;3.42;;
45114;SDS011;30877;43.706;10.780;2023-03-08T00:50:50;4.03;;;2.92;;
45114;SDS011;30877;43.706;10.780;2023-03-08T00:53:19;4.53;;;3.20;;
45114;SDS011;30877;43.706;10.780;2023-03-08T00:55:49;6.32;;;3.83;;
45114;SDS011;30877;43.706;10.780;2023-03-08T00:58:19;5.28;;;3.70;;
45114;SDS011;30877;43.706;10.780;2023-03-08T01:00:48;4.63;;;3.17;;
45114;SDS011;30877;43.706;10.780;2023-03-08T01:03:17;3.92;;;2.97;;
45114;SDS011;30877;43.706;10.780;2023-03-08T01:05:47;4.45;;;2.83;;
45114;SDS011;30877;43.706;10.780;2023-03-08T01:08:16;5.30;;;3.00;;
45114;SDS011;30877;43.706;10.780;2023-03-08T01:10:46;6.68;;;3.30;;
45114;SDS011;30877;43.706;10.780;2023-03-08T01:13:16;4.53;;;2.88;;
45114;SDS011;30877;43.706;10.780;2023-03-08T01:15:45;3.20;;;2.63;;
45114;SDS011;30877;43.706;10.780;2023-03-08T01:18:13;6.20;;;3.08;;
45114;SDS011;30877;43.706;10.780;2023-03-08T01:20:42;6.60;;;3.10;;
45114;SDS011;30877;43.706;10.780;2023-03-08T01:23:12;4.30;;;2.80;;
45114;SDS011;30877;43.706;10.780;2023-03-08T01:25:42;4.25;;;2.63;;
45114;SDS011;30877;43.706;10.780;2023-03-08T01:28:11;2.58;;;2.20;;
45114;SDS011;30877;43.706;10.780;2023-03-08T01:30:41;4.13;;;2.67;;
45114;SDS011;30877;43.706;10.780;2023-03-08T01:33:09;3.70;;;2.83;;
45114;SDS011;30877;43.706;10.780;2023-03-08T01:35:37;4.13;;;2.60;;
45114;SDS011;30877;43.706;10.780;2023-03-08T01:38:06;3.50;;;2.90;;
45114;SDS011;30877;43.706;10.780;2023-03-08T01:40:34;5.82;;;3.00;;
45114;SDS011;30877;43.706;10.780;2023-03-08T01:43:09;4.88;;;3.60;;
45114;SDS011;30877;43.706;10.780;2023-03-08T01:46:06;4.43;;;3.20;;
45114;SDS011;30877;43.706;10.780;2023-03-08T01:48:43;6.70;;;4.15;;
45114;SDS011;30877;43.706;10.780;2023-03-08T01:51:18;5.03;;;3.28;;
45114;SDS011;30877;43.706;10.780;2023-03-08T01:53:48;6.03;;;3.67;;
45114;SDS011;30877;43.706;10.780;2023-03-08T01:56:16;6.78;;;5.03;;
45114;SDS011;30877;43.706;10.780;2023-03-08T01:58:47;5.45;;;3.88;;
45114;SDS011;30877;43.706;10.780;2023-03-08T02:01:19;5.72;;;4.05;;
45114;SDS011;30877;43.706;10.780;2023-03-08T02:03:50;5.35;;;3.60;;
45114;SDS011;30877;43.706;10.780;2023-03-08T02:06:21;5.00;;;3.20;;
45114;SDS011;30877;43.706;10.780;2023-03-08T02:08:49;6.70;;;3.55;;
45114;SDS011;30877;43.706;10.780;2023-03-08T02:11:17;5.55;;;3.65;;
45114;SDS011;30877;43.706;10.780;2023-03-08T02:13:48;4.75;;;3.60;;
45114;SDS011;30877;43.706;10.780;2023-03-08T02:16:19;5.50;;;3.70;;
45114;SDS011;30877;43.706;10.780;2023-03-08T02:18:49;6.65;;;4.03;;
45114;SDS011;30877;43.706;10.780;2023-03-08T02:21:20;4.32;;;3.58;;
45114;SDS011;30877;43.706;10.780;2023-03-08T02:23:50;3.60;;;2.97;;
45114;SDS011;30877;43.706;10.780;2023-03-08T02:26:18;4.97;;;3.13;;
45114;SDS011;30877;43.706;10.780;2023-03-08T02:28:46;5.85;;;3.38;;
45114;SDS011;30877;43.706;10.780;2023-03-08T02:31:14;4.38;;;3.17;;
45114;SDS011;30877;43.706;10.780;2023-03-08T02:33:43;7.05;;;3.75;;
45114;SDS011;30877;43.706;10.780;2023-03-08T02:36:11;4.18;;;3.20;;
45114;SDS011;30877;43.706;10.780;2023-03-08T02:38:39;6.47;;;3.33;;
45114;SDS011;30877;43.706;10.780;2023-03-08T02:41:08;5.25;;;3.38;;
45114;SDS011;30877;43.706;10.780;2023-03-08T02:43:36;3.95;;;2.88;;
45114;SDS011;30877;43.706;10.780;2023-03-08T02:46:05;4.00;;;2.85;;
45114;SDS011;30877;43.706;10.780;2023-03-08T02:48:33;4.93;;;3.53;;
45114;SDS011;30877;43.706;10.780;2023-03-08T02:51:00;4.22;;;3.03;;
45114;SDS011;30877;43.706;10.780;2023-03-08T02:53:28;4.57;;;3.33;;
45114;SDS011;30877;43.706;10.780;2023-03-08T02:55:58;5.72;;;4.65;;
45114;SDS011;30877;43.706;10.780;2023-03-08T02:58:27;4.82;;;3.47;;
45114;SDS011;30877;43.706;10.780;2023-03-08T03:00:55;5.68;;;3.97;;
45114;SDS011;30877;43.706;10.780;2023-03-08T03:03:23;5.60;;;4.55;;
45114;SDS011;30877;43.706;10.780;2023-03-08T03:05:51;7.00;;;3.88;;
45114;SDS011;30877;43.706;10.780;2023-03-08T03:08:28;4.60;;;3.28;;
45114;SDS011;30877;43.706;10.780;2023-03-08T03:10:56;5.13;;;3.65;;
45114;SDS011;30877;43.706;10.780;2023-03-08T03:13:24;6.82;;;3.92;;
45114;SDS011;30877;43.706;10.780;2023-03-08T03:15:54;4.05;;;3.22;;
45114;SDS011;30877;43.706;10.780;2023-03-08T03:18:22;6.50;;;3.60;;
45114;SDS011;30877;43.706;10.780;2023-03-08T03:20:50;5.93;;;3.58;;
45114;SDS011;30877;43.706;10.780;2023-03-08T03:23:18;5.82;;;3.53;;
45114;SDS011;30877;43.706;10.780;2023-03-08T03:25:51;4.68;;;3.58;;
45114;SDS011;30877;43.706;10.780;2023-03-08T03:28:19;3.92;;;3.50;;
45114;SDS011;30877;43.706;10.780;2023-03-08T03:30:50;4.45;;;3.47;;
45114;SDS011;30877;43.706;10.780;2023-03-08T03:33:18;4.47;;;3.30;;
45114;SDS011;30877;43.706;10.780;2023-03-08T03:35:46;4.75;;;3.72;;
45114;SDS011;30877;43.706;10.780;2023-03-08T03:38:15;4.28;;;3.50;;
45114;SDS011;30877;43.706;10.780;2023-03-08T03:40:45;7.40;;;3.97;;
45114;SDS011;30877;43.706;10.780;2023-03-08T03:43:14;6.10;;;3.58;;
45114;SDS011;30877;43.706;10.780;2023-03-08T03:45:42;4.50;;;3.60;;
45114;SDS011;30877;43.706;10.780;2023-03-08T03:48:11;5.93;;;4.15;;
45114;SDS011;30877;43.706;10.780;2023-03-08T03:50:41;4.40;;;3.50;;
45114;SDS011;30877;43.706;10.780;2023-03-08T03:53:12;4.97;;;3.67;;
45114;SDS011;30877;43.706;10.780;2023-03-08T03:55:40;7.13;;;4.03;;
45114;SDS011;30877;43.706;10.780;2023-03-08T03:58:08;5.25;;;3.83;;
45114;SDS011;30877;43.706;10.780;2023-03-08T04:00:36;6.40;;;3.95;;
45114;SDS011;30877;43.706;10.780;2023-03-08T04:03:17;6.30;;;4.25;;
45114;SDS011;30877;43.706;10.780;2023-03-08T04:05:45;5.03;;;3.65;;
45114;SDS011;30877;43.706;10.780;2023-03-08T04:08:14;5.25;;;4.05;;
45114;SDS011;30877;43.706;10.780;2023-03-08T04:10:43;6.78;;;4.22;;
45114;SDS011;30877;43.706;10.780;2023-03-08T04:13:11;6.32;;;4.47;;
45114;SDS011;30877;43.706;10.780;2023-03-08T04:15:40;5.90;;;4.45;;
45114;SDS011;30877;43.706;10.780;2023-03-08T04:18:11;5.90;;;4.20;;
45114;SDS011;30877;43.706;10.780;2023-03-08T04:20:44;4.35;;;3.80;;
45114;SDS011;30877;43.706;10.780;2023-03-08T04:23:14;5.85;;;4.47;;
45114;SDS011;30877;43.706;10.780;2023-03-08T04:25:45;6.18;;;4.15;;
45114;SDS011;30877;43.706;10.780;2023-03-08T04:28:15;6.18;;;3.90;;
45114;SDS011;30877;43.706;10.780;2023-03-08T04:30:43;5.55;;;4.25;;
45114;SDS011;30877;43.706;10.780;2023-03-08T04:33:15;4.38;;;3.80;;
45114;SDS011;30877;43.706;10.780;2023-03-08T04:35:48;5.50;;;3.97;;
45114;SDS011;30877;43.706;10.780;2023-03-08T04:38:19;4.70;;;4.20;;
45114;SDS011;30877;43.706;10.780;2023-03-08T04:40:52;5.65;;;4.03;;
45114;SDS011;30877;43.706;10.780;2023-03-08T04:43:43;5.65;;;4.50;;
45114;SDS011;30877;43.706;10.780;2023-03-08T04:46:14;6.63;;;4.68;;
45114;SDS011;30877;43.706;10.780;2023-03-08T04:48:44;4.65;;;4.22;;
45114;SDS011;30877;43.706;10.780;2023-03-08T04:51:16;5.22;;;4.35;;
45114;SDS011;30877;43.706;10.780;2023-03-08T04:53:45;5.55;;;4.32;;
45114;SDS011;30877;43.706;10.780;2023-03-08T04:56:14;6.20;;;4.57;;
45114;SDS011;30877;43.706;10.780;2023-03-08T04:58:45;5.80;;;5.07;;
45114;SDS011;30877;43.706;10.780;2023-03-08T05:01:16;5.85;;;4.53;;
45114;SDS011;30877;43.706;10.780;2023-03-08T05:03:46;5.68;;;4.57;;
45114;SDS011;30877;43.706;10.780;2023-03-08T05:06:23;5.35;;;4.13;;
45114;SDS011;30877;43.706;10.780;2023-03-08T05:08:54;5.53;;;3.85;;
45114;SDS011;30877;43.706;10.780;2023-03-08T05:11:24;5.18;;;4.03;;
45114;SDS011;30877;43.706;10.780;2023-03-08T05:13:54;5.72;;;4.32;;
45114;SDS011;30877;43.706;10.780;2023-03-08T05:16:26;5.05;;;3.83;;
45114;SDS011;30877;43.706;10.780;2023-03-08T05:18:55;5.70;;;4.10;;
45114;SDS011;30877;43.706;10.780;2023-03-08T05:21:29;4.25;;;3.42;;
45114;SDS011;30877;43.706;10.780;2023-03-08T05:24:00;5.75;;;3.65;;
45114;SDS011;30877;43.706;10.780;2023-03-08T05:26:32;4.05;;;3.13;;
45114;SDS011;30877;43.706;10.780;2023-03-08T05:29:00;5.30;;;3.60;;
45114;SDS011;30877;43.706;10.780;2023-03-08T05:31:30;6.13;;;3.50;;
45114;SDS011;30877;43.706;10.780;2023-03-08T05:34:03;4.45;;;3.30;;
45114;SDS011;30877;43.706;10.780;2023-03-08T05:36:37;5.15;;;3.35;;
45114;SDS011;30877;43.706;10.780;2023-03-08T05:39:06;5.28;;;3.25;;
45114;SDS011;30877;43.706;10.780;2023-03-08T05:41:41;4.05;;;3.33;;
45114;SDS011;30877;43.706;10.780;2023-03-08T05:44:12;4.60;;;3.25;;
45114;SDS011;30877;43.706;10.780;2023-03-08T05:46:41;5.13;;;3.80;;
45114;SDS011;30877;43.706;10.780;2023-03-08T05:49:11;4.03;;;3.40;;
45114;SDS011;30877;43.706;10.780;2023-03-08T05:51:41;4.47;;;3.58;;
45114;SDS011;30877;43.706;10.780;2023-03-08T05:54:10;5.40;;;3.72;;
45114;SDS011;30877;43.706;10.780;2023-03-08T05:56:40;4.82;;;3.47;;
45114;SDS011;30877;43.706;10.780;2023-03-08T05:59:18;5.88;;;3.78;;
45114;SDS011;30877;43.706;10.780;2023-03-08T06:01:47;4.47;;;3.70;;
45114;SDS011;30877;43.706;10.780;2023-03-08T06:04:35;4.70;;;3.55;;
45114;SDS011;30877;43.706;10.780;2023-03-08T06:07:05;4.97;;;3.55;;
45114;SDS011;30877;43.706;10.780;2023-03-08T06:09:38;4.60;;;3.22;;
45114;SDS011;30877;43.706;10.780;2023-03-08T06:12:11;7.72;;;5.00;;
45114;SDS011;30877;43.706;10.780;2023-03-08T06:14:39;8.77;;;5.80;;
45114;SDS011;30877;43.706;10.780;2023-03-08T06:17:07;9.35;;;8.32;;
45114;SDS011;30877;43.706;10.780;2023-03-08T06:19:40;8.18;;;6.85;;
45114;SDS011;30877;43.706;10.780;2023-03-08T06:22:12;9.65;;;7.82;;
45114;SDS011;30877;43.706;10.780;2023-03-08T06:24:43;8.55;;;7.47;;
45114;SDS011;30877;43.706;10.780;2023-03-08T06:27:22;9.80;;;7.18;;
45114;SDS011;30877;43.706;10.780;2023-03-08T06:29:52;8.15;;;6.57;;
45114;SDS011;30877;43.706;10.780;2023-03-08T06:32:22;8.48;;;7.00;;
45114;SDS011;30877;43.706;10.780;2023-03-08T06:34:50;7.40;;;5.90;;
45114;SDS011;30877;43.706;10.780;2023-03-08T06:37:20;6.78;;;5.82;;
45114;SDS011;30877;43.706;10.780;2023-03-08T06:39:48;6.47;;;5.65;;
45114;SDS011;30877;43.706;10.780;2023-03-08T06:42:16;7.80;;;6.47;;
45114;SDS011;30877;43.706;10.780;2023-03-08T06:44:51;7.80;;;6.07;;
45114;SDS011;30877;43.706;10.780;2023-03-08T06:47:19;11.07;;;6.50;;
45114;SDS011;30877;43.706;10.780;2023-03-08T06:49:47;8.07;;;5.85;;
45114;SDS011;30877;43.706;10.780;2023-03-08T06:52:15;6.70;;;5.03;;
45114;SDS011;30877;43.706;10.780;2023-03-08T06:54:48;7.03;;;4.47;;
45114;SDS011;30877;43.706;10.780;2023-03-08T06:57:16;7.15;;;3.97;;
45114;SDS011;30877;43.706;10.780;2023-03-08T06:59:44;5.35;;;3.83;;
45114;SDS011;30877;43.706;10.780;2023-03-08T07:02:12;6.07;;;3.97;;
45114;SDS011;30877;43.706;10.780;2023-03-08T07:04:40;7.05;;;3.85;;
45114;SDS011;30877;43.706;10.780;2023-03-08T07:07:08;4.13;;;3.67;;
45114;SDS011;30877;43.706;10.780;2023-03-08T07:09:36;5.68;;;4.32;;
45114;SDS011;30877;43.706;10.780;2023-03-08T07:12:06;6.25;;;4.28;;
45114;SDS011;30877;43.706;10.780;2023-03-08T07:14:35;4.05;;;3.65;;
45114;SDS011;30877;43.706;10.780;2023-03-08T07:17:03;5.53;;;4.32;;
45114;SDS011;30877;43.706;10.780;2023-03-08T07:19:41;5.03;;;3.60;;
45114;SDS011;30877;43.706;10.780;2023-03-08T07:22:09;5.70;;;4.22;;
45114;SDS011;30877;43.706;10.780;2023-03-08T07:24:38;4.50;;;3.85;;
45114;SDS011;30877;43.706;10.780;2023-03-08T07:27:08;6.47;;;4.03;;
45114;SDS011;30877;43.706;10.780;2023-03-08T07:29:36;7.00;;;3.75;;
45114;SDS011;30877;43.706;10.780;2023-03-08T07:32:04;4.10;;;3.63;;
45114;SDS011;30877;43.706;10.780;2023-03-08T07:34:33;5.70;;;3.97;;
45114;SDS011;30877;43.706;10.780;2023-03-08T07:37:01;4.25;;;3.20;;
45114;SDS011;30877;43.706;10.780;2023-03-08T07:39:31;5.85;;;3.53;;
45114;SDS011;30877;43.706;10.780;2023-03-08T07:41:59;4.45;;;3.47;;
45114;SDS011;30877;43.706;10.780;2023-03-08T07:44:28;4.43;;;3.88;;
45114;SDS011;30877;43.706;10.780;2023-03-08T07:46:56;6.88;;;3.92;;
45114;SDS011;30877;43.706;10.780;2023-03-08T07:49:24;5.65;;;3.92;;
45114;SDS011;30877;43.706;10.780;2023-03-08T07:51:52;5.70;;;3.95;;
45114;SDS011;30877;43.706;10.780;2023-03-08T07:54:21;5.30;;;3.78;;
45114;SDS011;30877;43.706;10.780;2023-03-08T07:56:50;4.03;;;3.53;;
45114;SDS011;30877;43.706;10.780;2023-03-08T07:59:18;6.43;;;4.07;;
45114;SDS011;30877;43.706;10.780;2023-03-08T08:01:48;4.75;;;3.63;;
45114;SDS011;30877;43.706;10.780;2023-03-08T08:04:16;5.38;;;3.55;;
45114;SDS011;30877;43.706;10.780;2023-03-08T08:06:44;5.25;;;3.72;;
45114;SDS011;30877;43.706;10.780;2023-03-08T08:09:13;4.90;;;3.88;;
45114;SDS011;30877;43.706;10.780;2023-03-08T08:11:41;4.80;;;3.42;;
45114;SDS011;30877;43.706;10.780;2023-03-08T08:14:09;4.88;;;3.03;;
45114;SDS011;30877;43.706;10.780;2023-03-08T08:16:37;6.50;;;4.07;;
45114;SDS011;30877;43.706;10.780;2023-03-08T08:19:08;5.82;;;4.30;;
45114;SDS011;30877;43.706;10.780;2023-03-08T08:21:37;6.78;;;3.75;;
45114;SDS011;30877;43.706;10.780;2023-03-08T08:24:06;5.22;;;4.15;;
45114;SDS011;30877;43.706;10.780;2023-03-08T08:26:34;6.75;;;4.13;;
45114;SDS011;30877;43.706;10.780;2023-03-08T08:29:02;6.97;;;3.85;;
45114;SDS011;30877;43.706;10.780;2023-03-08T08:31:31;7.45;;;5.00;;
45114;SDS011;30877;43.706;10.780;2023-03-08T08:33:59;6.15;;;4.55;;
45114;SDS011;30877;43.706;10.780;2023-03-08T08:36:29;6.75;;;4.10;;
45114;SDS011;30877;43.706;10.780;2023-03-08T08:38:57;5.25;;;3.90;;
45114;SDS011;30877;43.706;10.780;2023-03-08T08:41:26;5.10;;;4.07;;
45114;SDS011;30877;43.706;10.780;2023-03-08T08:43:55;6.88;;;4.07;;
45114;SDS011;30877;43.706;10.780;2023-03-08T08:46:26;6.13;;;4.30;;
45114;SDS011;30877;43.706;10.780;2023-03-08T08:48:54;5.10;;;4.38;;
45114;SDS011;30877;43.706;10.780;2023-03-08T08:51:24;6.10;;;4.13;;
45114;SDS011;30877;43.706;10.780;2023-03-08T08:53:54;7.53;;;4.60;;
45114;SDS011;30877;43.706;10.780;2023-03-08T08:56:23;6.05;;;4.25;;
45114;SDS011;30877;43.706;10.780;2023-03-08T08:58:58;6.82;;;4.38;;
45114;SDS011;30877;43.706;10.780;2023-03-08T09:01:28;7.70;;;4.28;;
45114;SDS011;30877;43.706;10.780;2023-03-08T09:03:58;6.38;;;4.03;;
45114;SDS011;30877;43.706;10.780;2023-03-08T09:06:27;11.52;;;5.00;;
45114;SDS011;30877;43.706;10.780;2023-03-08T09:08:58;11.52;;;4.82;;
45114;SDS011;30877;43.706;10.780;2023-03-08T09:11:26;10.43;;;4.78;;
45114;SDS011;30877;43.706;10.780;2023-03-08T09:13:55;8.00;;;4.15;;
45114;SDS011;30877;43.706;10.780;2023-03-08T09:16:23;13.00;;;4.97;;
45114;SDS011;30877;43.706;10.780;2023-03-08T09:18:53;10.05;;;5.10;;
45114;SDS011;30877;43.706;10.780;2023-03-08T09:21:25;10.48;;;5.80;;
45114;SDS011;30877;43.706;10.780;2023-03-08T09:23:54;9.27;;;4.78;;
45114;SDS011;30877;43.706;10.780;2023-03-08T09:26:24;9.45;;;5.43;;
45114;SDS011;30877;43.706;10.780;2023-03-08T09:28:52;7.75;;;4.63;;
45114;SDS011;30877;43.706;10.780;2023-03-08T09:31:20;13.20;;;5.40;;
45114;SDS011;30877;43.706;10.780;2023-03-08T09:33:50;8.57;;;5.05;;
45114;SDS011;30877;43.706;10.780;2023-03-08T09:36:18;10.98;;;5.20;;
45114;SDS011;30877;43.706;10.780;2023-03-08T09:38:47;9.25;;;4.68;;
45114;SDS011;30877;43.706;10.780;2023-03-08T09:41:26;9.40;;;5.03;;
45114;SDS011;30877;43.706;10.780;2023-03-08T09:44:12;7.45;;;4.00;;
45114;SDS011;30877;43.706;10.780;2023-03-08T09:47:02;8.55;;;4.40;;
45114;SDS011;30877;43.706;10.780;2023-03-08T09:49:39;6.60;;;3.65;;
45114;SDS011;30877;43.706;10.780;2023-03-08T09:52:09;8.70;;;3.72;;
45114;SDS011;30877;43.706;10.780;2023-03-08T09:54:42;7.55;;;3.50;;
45114;SDS011;30877;43.706;10.780;2023-03-08T09:57:15;8.48;;;3.70;;
45114;SDS011;30877;43.706;10.780;2023-03-08T09:59:49;9.15;;;4.00;;
45114;SDS011;30877;43.706;10.780;2023-03-08T10:02:23;18.02;;;9.32;;
45114;SDS011;30877;43.706;10.780;2023-03-08T10:04:59;7.30;;;5.10;;
45114;SDS011;30877;43.706;10.780;2023-03-08T10:07:46;11.02;;;4.13;;
45114;SDS011;30877;43.706;10.780;2023-03-08T10:10:29;8.40;;;3.90;;
45114;SDS011;30877;43.706;10.780;2023-03-08T10:13:14;7.72;;;3.60;;
45114;SDS011;30877;43.706;10.780;2023-03-08T10:15:54;9.07;;;2.50;;
45114;SDS011;30877;43.706;10.780;2023-03-08T10:18:29;10.25;;;3.78;;
45114;SDS011;30877;43.706;10.780;2023-03-08T10:21:02;14.82;;;4.25;;
45114;SDS011;30877;43.706;10.780;2023-03-08T10:23:31;7.88;;;3.05;;
45114;SDS011;30877;43.706;10.780;2023-03-08T10:25:59;10.30;;;3.55;;
45114;SDS011;30877;43.706;10.780;2023-03-08T10:28:33;11.13;;;4.63;;
45114;SDS011;30877;43.706;10.780;2023-03-08T10:31:01;7.85;;;3.08;;
45114;SDS011;30877;43.706;10.780;2023-03-08T10:33:41;9.77;;;3.30;;
45114;SDS011;30877;43.706;10.780;2023-03-08T10:36:15;10.65;;;2.92;;
45114;SDS011;30877;43.706;10.780;2023-03-08T10:38:54;9.30;;;2.80;;
45114;SDS011;30877;43.706;10.780;2023-03-08T10:41:24;10.88;;;3.17;;
45114;SDS011;30877;43.706;10.780;2023-03-08T10:43:55;12.90;;;3.22;;
45114;SDS011;30877;43.706;10.780;2023-03-08T10:46:24;8.70;;;2.30;;
45114;SDS011;30877;43.706;10.780;2023-03-08T10:49:04;11.88;;;3.22;;
45114;SDS011;30877;43.706;10.780;2023-03-08T10:51:35;10.00;;;3.20;;
45114;SDS011;30877;43.706;10.780;2023-03-08T10:54:04;7.88;;;2.63;;
45114;SDS011;30877;43.706;10.780;2023-03-08T10:56:35;8.50;;;2.25;;
45114;SDS011;30877;43.706;10.780;2023-03-08T10:59:14;7.82;;;2.10;;
45114;SDS011;30877;43.706;10.780;2023-03-08T11:01:48;6.03;;;2.30;;
45114;SDS011;30877;43.706;10.780;2023-03-08T11:04:18;7.45;;;2.33;;
45114;SDS011;30877;43.706;10.780;2023-03-08T11:09:37;5.72;;;2.78;;
45114;SDS011;30877;43.706;10.780;2023-03-08T11:12:08;9.60;;;2.85;;
45114;SDS011;30877;43.706;10.780;2023-03-08T11:14:50;8.68;;;2.75;;
45114;SDS011;30877;43.706;10.780;2023-03-08T11:17:20;9.02;;;2.58;;
45114;SDS011;30877;43.706;10.780;2023-03-08T11:19:57;7.53;;;2.35;;
45114;SDS011;30877;43.706;10.780;2023-03-08T11:22:40;5.93;;;1.67;;
45114;SDS011;30877;43.706;10.780;2023-03-08T11:25:22;7.30;;;2.47;;
45114;SDS011;30877;43.706;10.780;2023-03-08T11:28:02;9.55;;;3.25;;
45114;SDS011;30877;43.706;10.780;2023-03-08T11:30:45;9.93;;;2.90;;
45114;SDS011;30877;43.706;10.780;2023-03-08T11:33:27;7.22;;;2.75;;
45114;SDS011;30877;43.706;10.780;2023-03-08T11:38:40;10.63;;;3.30;;
45114;SDS011;30877;43.706;10.780;2023-03-08T11:41:16;8.38;;;2.53;;
45114;SDS011;30877;43.706;10.780;2023-03-08T11:43:56;8.48;;;2.25;;
45114;SDS011;30877;43.706;10.780;2023-03-08T11:46:48;7.00;;;2.13;;
45114;SDS011;30877;43.706;10.780;2023-03-08T11:49:27;7.55;;;2.72;;
45114;SDS011;30877;43.706;10.780;2023-03-08T11:52:14;6.68;;;1.80;;
45114;SDS011;30877;43.706;10.780;2023-03-08T11:54:51;8.52;;;2.10;;
45114;SDS011;30877;43.706;10.780;2023-03-08T11:57:29;7.55;;;1.83;;
45114;SDS011;30877;43.706;10.780;2023-03-08T12:00:03;8.30;;;1.95;;
45114;SDS011;30877;43.706;10.780;2023-03-08T12:02:41;4.20;;;1.45;;
45114;SDS011;30877;43.706;10.780;2023-03-08T12:05:14;6.20;;;1.58;;
45114;SDS011;30877;43.706;10.780;2023-03-08T12:07:50;9.45;;;1.88;;
45114;SDS011;30877;43.706;10.780;2023-03-08T12:10:22;6.10;;;1.60;;
45114;SDS011;30877;43.706;10.780;2023-03-08T12:12:54;5.85;;;1.80;;
45114;SDS011;30877;43.706;10.780;2023-03-08T12:15:28;5.00;;;1.63;;
45114;SDS011;30877;43.706;10.780;2023-03-08T12:18:03;9.93;;;2.00;;
45114;SDS011;30877;43.706;10.780;2023-03-08T12:20:39;9.20;;;1.77;;
45114;SDS011;30877;43.706;10.780;2023-03-08T12:23:12;8.50;;;2.22;;
45114;SDS011;30877;43.706;10.780;2023-03-08T12:25:53;8.93;;;2.20;;
45114;SDS011;30877;43.706;10.780;2023-03-08T12:28:27;7.32;;;2.25;;
45114;SDS011;30877;43.706;10.780;2023-03-08T12:31:07;9.43;;;2.40;;
45114;SDS011;30877;43.706;10.780;2023-03-08T12:33:55;6.20;;;1.83;;
45114;SDS011;30877;43.706;10.780;2023-03-08T12:39:22;10.48;;;2.28;;
45114;SDS011;30877;43.706;10.780;2023-03-08T12:41:56;11.07;;;2.90;;
45114;SDS011;30877;43.706;10.780;2023-03-08T12:44:26;10.40;;;2.30;;
45114;SDS011;30877;43.706;10.780;2023-03-08T12:46:56;11.63;;;2.40;;
45114;SDS011;30877;43.706;10.780;2023-03-08T12:49:33;10.70;;;2.33;;
45114;SDS011;30877;43.706;10.780;2023-03-08T12:52:04;9.23;;;2.50;;
45114;SDS011;30877;43.706;10.780;2023-03-08T12:54:33;6.45;;;2.25;;
45114;SDS011;30877;43.706;10.780;2023-03-08T12:57:03;10.25;;;2.38;;
45114;SDS011;30877;43.706;10.780;2023-03-08T12:59:45;10.07;;;2.75;;
45114;SDS011;30877;43.706;10.780;2023-03-08T13:02:24;9.60;;;2.30;;
45114;SDS011;30877;43.706;10.780;2023-03-08T13:08:06;12.75;;;2.70;;
45114;SDS011;30877;43.706;10.780;2023-03-08T13:10:56;13.70;;;2.63;;
45114;SDS011;30877;43.706;10.780;2023-03-08T13:13:32;11.45;;;3.30;;
45114;SDS011;30877;43.706;10.780;2023-03-08T13:18:46;11.10;;;3.78;;
45114;SDS011;30877;43.706;10.780;2023-03-08T13:21:27;12.07;;;4.18;;
45114;SDS011;30877;43.706;10.780;2023-03-08T13:24:02;10.75;;;2.35;;
45114;SDS011;30877;43.706;10.780;2023-03-08T13:26:42;7.53;;;2.78;;
45114;SDS011;30877;43.706;10.780;2023-03-08T13:29:21;8.40;;;2.40;;
45114;SDS011;30877;43.706;10.780;2023-03-08T13:31:54;6.65;;;2.17;;
45114;SDS011;30877;43.706;10.780;2023-03-08T13:34:23;8.68;;;2.70;;
45114;SDS011;30877;43.706;10.780;2023-03-08T13:36:56;8.18;;;2.50;;
45114;SDS011;30877;43.706;10.780;2023-03-08T13:39:25;6.72;;;1.77;;
45114;SDS011;30877;43.706;10.780;2023-03-08T13:42:04;7.65;;;2.05;;
45114;SDS011;30877;43.706;10.780;2023-03-08T13:44:35;5.55;;;1.85;;
45114;SDS011;30877;43.706;10.780;2023-03-08T13:47:16;5.72;;;2.25;;
45114;SDS011;30877;43.706;10.780;2023-03-08T13:49:50;10.75;;;3.05;;
45114;SDS011;30877;43.706;10.780;2023-03-08T13:52:24;8.45;;;3.97;;
45114;SDS011;30877;43.706;10.780;2023-03-08T13:54:58;7.53;;;2.78;;
45114;SDS011;30877;43.706;10.780;2023-03-08T13:57:31;10.93;;;2.60;;
45114;SDS011;30877;43.706;10.780;2023-03-08T14:00:18;11.65;;;2.63;;
45114;SDS011;30877;43.706;10.780;2023-03-08T14:02:52;7.68;;;2.10;;
45114;SDS011;30877;43.706;10.780;2023-03-08T14:05:21;9.43;;;2.47;;
45114;SDS011;30877;43.706;10.780;2023-03-08T14:07:57;10.10;;;3.25;;
45114;SDS011;30877;43.706;10.780;2023-03-08T14:10:31;7.93;;;2.25;;
45114;SDS011;30877;43.706;10.780;2023-03-08T14:13:03;10.10;;;2.53;;
45114;SDS011;30877;43.706;10.780;2023-03-08T14:15:34;10.30;;;2.78;;
45114;SDS011;30877;43.706;10.780;2023-03-08T14:18:06;7.63;;;2.53;;
45114;SDS011;30877;43.706;10.780;2023-03-08T14:23:14;8.85;;;2.83;;
45114;SDS011;30877;43.706;10.780;2023-03-08T14:25:54;12.52;;;2.80;;
45114;SDS011;30877;43.706;10.780;2023-03-08T14:28:33;12.40;;;2.90;;
45114;SDS011;30877;43.706;10.780;2023-03-08T14:31:22;11.95;;;2.60;;
45114;SDS011;30877;43.706;10.780;2023-03-08T14:33:56;10.05;;;3.08;;
45114;SDS011;30877;43.706;10.780;2023-03-08T14:36:25;10.88;;;2.55;;
45114;SDS011;30877;43.706;10.780;2023-03-08T14:38:56;8.73;;;1.80;;
45114;SDS011;30877;43.706;10.780;2023-03-08T14:41:28;10.85;;;2.92;;
45114;SDS011;30877;43.706;10.780;2023-03-08T14:43:58;9.90;;;2.78;;
45114;SDS011;30877;43.706;10.780;2023-03-08T14:46:27;14.57;;;2.55;;
45114;SDS011;30877;43.706;10.780;2023-03-08T14:48:58;7.88;;;2.13;;
45114;SDS011;30877;43.706;10.780;2023-03-08T14:51:28;13.07;;;3.03;;
45114;SDS011;30877;43.706;10.780;2023-03-08T14:56:46;13.88;;;2.78;;
45114;SDS011;30877;43.706;10.780;2023-03-08T14:59:16;9.10;;;2.90;;
45114;SDS011;30877;43.706;10.780;2023-03-08T15:01:53;13.10;;;2.85;;
45114;SDS011;30877;43.706;10.780;2023-03-08T15:04:23;9.73;;;2.38;;
45114;SDS011;30877;43.706;10.780;2023-03-08T15:06:53;10.15;;;2.45;;
45114;SDS011;30877;43.706;10.780;2023-03-08T15:09:42;11.60;;;2.95;;
45114;SDS011;30877;43.706;10.780;2023-03-08T15:12:11;10.02;;;3.00;;
45114;SDS011;30877;43.706;10.780;2023-03-08T15:14:39;14.25;;;2.88;;
45114;SDS011;30877;43.706;10.780;2023-03-08T15:17:08;9.88;;;2.22;;
45114;SDS011;30877;43.706;10.780;2023-03-08T15:19:36;11.70;;;2.67;;